sensor_id;sensor_type;location;lat;lon;timestamp;P1;durP1;ratioP1;P2;durP2;ratioP2
26082;SDS011;13848;49.018;12.078;2022-12-05T00:02:17;38.03;;;15.00;;
26082;SDS011;13848;49.018;12.078;2022-12-05T00:04:43;39.70;;;14.45;;
26082;SDS011;13848;49.018;12.078;2022-12-05T00:07:09;36.50;;;13.93;;
26082;SDS011;13848;49.018;12.078;2022-12-05T00:09:35;35.85;;;13.52;;
26082;SDS011;13848;49.018;12.078;2022-12-05T00:12:02;31.83;;;13.50;;
26082;SDS011;13848;49.018;12.078;2022-12-05T00:14:30;38.63;;;14.02;;
26082;SDS011;13848;49.018;12.078;2022-12-05T00:16:56;33.80;;;13.43;;
26082;SDS011;13848;49.018;12.078;2022-12-05T00:19:22;34.42;;;12.60;;
26082;SDS011;13848;49.018;12.078;2022-12-05T00:21:48;33.13;;;12.48;;
26082;SDS011;13848;49.018;12.078;2022-12-05T00:24:14;35.70;;;12.60;;
26082;SDS011;13848;49.018;12.078;2022-12-05T00:26:41;31.15;;;13.13;;
26082;SDS011;13848;49.018;12.078;2022-12-05T00:29:07;33.50;;;12.65;;
26082;SDS011;13848;49.018;12.078;2022-12-05T00:31:35;29.67;;;11.77;;
26082;SDS011;13848;49.018;12.078;2022-12-05T00:34:01;30.52;;;11.70;;
26082;SDS011;13848;49.018;12.078;2022-12-05T00:36:28;25.27;;;11.10;;
26082;SDS011;13848;49.018;12.078;2022-12-05T00:38:57;28.92;;;12.13;;
26082;SDS011;13848;49.018;12.078;2022-12-05T00:41:24;29.83;;;11.65;;
26082;SDS011;13848;49.018;12.078;2022-12-05T00:43:52;25.33;;;10.88;;
26082;SDS011;13848;49.018;12.078;2022-12-05T00:46:19;28.05;;;10.90;;
26082;SDS011;13848;49.018;12.078;2022-12-05T00:48:48;26.20;;;10.52;;
26082;SDS011;13848;49.018;12.078;2022-12-05T00:51:15;28.52;;;10.95;;
26082;SDS011;13848;49.018;12.078;2022-12-05T00:53:42;20.48;;;9.65;;
26082;SDS011;13848;49.018;12.078;2022-12-05T00:56:10;26.73;;;10.90;;
26082;SDS011;13848;49.018;12.078;2022-12-05T00:58:37;26.20;;;10.48;;
26082;SDS011;13848;49.018;12.078;2022-12-05T01:01:05;23.23;;;9.90;;
26082;SDS011;13848;49.018;12.078;2022-12-05T01:03:31;25.30;;;9.98;;
26082;SDS011;13848;49.018;12.078;2022-12-05T01:05:59;24.05;;;10.18;;
26082;SDS011;13848;49.018;12.078;2022-12-05T01:08:25;23.77;;;10.05;;
26082;SDS011;13848;49.018;12.078;2022-12-05T01:10:52;24.33;;;10.32;;
26082;SDS011;13848;49.018;12.078;2022-12-05T01:13:18;23.75;;;10.57;;
26082;SDS011;13848;49.018;12.078;2022-12-05T01:15:44;22.42;;;9.98;;
26082;SDS011;13848;49.018;12.078;2022-12-05T01:18:10;19.23;;;8.90;;
26082;SDS011;13848;49.018;12.078;2022-12-05T01:20:37;22.17;;;10.02;;
26082;SDS011;13848;49.018;12.078;2022-12-05T01:23:05;19.60;;;10.10;;
26082;SDS011;13848;49.018;12.078;2022-12-05T01:25:31;21.63;;;9.40;;
26082;SDS011;13848;49.018;12.078;2022-12-05T01:27:57;24.92;;;9.93;;
26082;SDS011;13848;49.018;12.078;2022-12-05T01:30:23;25.83;;;9.52;;
26082;SDS011;13848;49.018;12.078;2022-12-05T01:32:49;27.30;;;10.90;;
26082;SDS011;13848;49.018;12.078;2022-12-05T01:35:15;21.95;;;9.57;;
26082;SDS011;13848;49.018;12.078;2022-12-05T01:37:41;20.13;;;9.27;;
26082;SDS011;13848;49.018;12.078;2022-12-05T01:40:09;17.92;;;8.57;;
26082;SDS011;13848;49.018;12.078;2022-12-05T01:42:35;20.13;;;9.15;;
26082;SDS011;13848;49.018;12.078;2022-12-05T01:45:03;21.63;;;9.40;;
26082;SDS011;13848;49.018;12.078;2022-12-05T01:47:32;20.50;;;9.38;;
26082;SDS011;13848;49.018;12.078;2022-12-05T01:50:00;19.92;;;8.77;;
26082;SDS011;13848;49.018;12.078;2022-12-05T01:52:27;25.33;;;9.75;;
26082;SDS011;13848;49.018;12.078;2022-12-05T01:54:56;19.90;;;8.70;;
26082;SDS011;13848;49.018;12.078;2022-12-05T01:57:27;20.55;;;9.32;;
26082;SDS011;13848;49.018;12.078;2022-12-05T01:59:54;20.75;;;9.57;;
26082;SDS011;13848;49.018;12.078;2022-12-05T02:02:25;19.92;;;9.52;;
26082;SDS011;13848;49.018;12.078;2022-12-05T02:04:54;22.45;;;9.23;;
26082;SDS011;13848;49.018;12.078;2022-12-05T02:07:27;19.38;;;9.25;;
26082;SDS011;13848;49.018;12.078;2022-12-05T02:09:53;19.13;;;9.27;;
26082;SDS011;13848;49.018;12.078;2022-12-05T02:12:19;19.42;;;9.30;;
26082;SDS011;13848;49.018;12.078;2022-12-05T02:14:50;18.10;;;9.02;;
26082;SDS011;13848;49.018;12.078;2022-12-05T02:17:31;19.13;;;8.65;;
26082;SDS011;13848;49.018;12.078;2022-12-05T02:20:11;19.50;;;8.88;;
26082;SDS011;13848;49.018;12.078;2022-12-05T02:29:02;18.10;;;8.85;;
26082;SDS011;13848;49.018;12.078;2022-12-05T02:31:55;19.25;;;9.02;;
26082;SDS011;13848;49.018;12.078;2022-12-05T02:34:28;19.40;;;8.70;;
26082;SDS011;13848;49.018;12.078;2022-12-05T02:37:01;19.17;;;8.90;;
26082;SDS011;13848;49.018;12.078;2022-12-05T02:39:34;21.02;;;8.93;;
26082;SDS011;13848;49.018;12.078;2022-12-05T02:42:07;22.63;;;9.80;;
26082;SDS011;13848;49.018;12.078;2022-12-05T02:44:41;19.83;;;9.68;;
26082;SDS011;13848;49.018;12.078;2022-12-05T02:47:13;21.92;;;9.18;;
26082;SDS011;13848;49.018;12.078;2022-12-05T02:49:43;24.17;;;9.30;;
26082;SDS011;13848;49.018;12.078;2022-12-05T02:52:11;17.73;;;8.80;;
26082;SDS011;13848;49.018;12.078;2022-12-05T02:54:41;22.05;;;9.73;;
26082;SDS011;13848;49.018;12.078;2022-12-05T02:57:09;19.52;;;8.38;;
26082;SDS011;13848;49.018;12.078;2022-12-05T02:59:37;19.60;;;8.65;;
26082;SDS011;13848;49.018;12.078;2022-12-05T03:02:03;16.67;;;8.32;;
26082;SDS011;13848;49.018;12.078;2022-12-05T03:04:30;13.30;;;7.18;;
26082;SDS011;13848;49.018;12.078;2022-12-05T03:06:57;19.80;;;7.72;;
26082;SDS011;13848;49.018;12.078;2022-12-05T03:09:26;19.05;;;8.55;;
26082;SDS011;13848;49.018;12.078;2022-12-05T03:11:59;16.50;;;7.80;;
26082;SDS011;13848;49.018;12.078;2022-12-05T03:14:32;16.85;;;7.80;;
26082;SDS011;13848;49.018;12.078;2022-12-05T03:17:01;14.68;;;6.95;;
26082;SDS011;13848;49.018;12.078;2022-12-05T03:19:34;12.57;;;6.32;;
26082;SDS011;13848;49.018;12.078;2022-12-05T03:22:09;11.70;;;5.78;;
26082;SDS011;13848;49.018;12.078;2022-12-05T03:24:39;10.68;;;6.03;;
26082;SDS011;13848;49.018;12.078;2022-12-05T03:27:06;10.13;;;5.97;;
26082;SDS011;13848;49.018;12.078;2022-12-05T03:29:39;12.07;;;6.65;;
26082;SDS011;13848;49.018;12.078;2022-12-05T03:32:13;10.02;;;5.80;;
26082;SDS011;13848;49.018;12.078;2022-12-05T03:34:47;11.82;;;5.82;;
26082;SDS011;13848;49.018;12.078;2022-12-05T03:37:19;13.23;;;7.00;;
26082;SDS011;13848;49.018;12.078;2022-12-05T03:39:57;12.65;;;6.57;;
26082;SDS011;13848;49.018;12.078;2022-12-05T03:42:32;10.43;;;6.28;;
26082;SDS011;13848;49.018;12.078;2022-12-05T03:45:02;11.05;;;6.55;;
26082;SDS011;13848;49.018;12.078;2022-12-05T03:47:34;11.98;;;6.05;;
26082;SDS011;13848;49.018;12.078;2022-12-05T03:50:11;11.38;;;5.88;;
26082;SDS011;13848;49.018;12.078;2022-12-05T03:52:45;12.07;;;6.30;;
26082;SDS011;13848;49.018;12.078;2022-12-05T03:55:15;14.70;;;7.10;;
26082;SDS011;13848;49.018;12.078;2022-12-05T03:57:43;12.38;;;6.85;;
26082;SDS011;13848;49.018;12.078;2022-12-05T04:00:15;13.68;;;6.90;;
26082;SDS011;13848;49.018;12.078;2022-12-05T04:02:44;10.20;;;6.10;;
26082;SDS011;13848;49.018;12.078;2022-12-05T04:05:18;12.85;;;6.75;;
26082;SDS011;13848;49.018;12.078;2022-12-05T04:07:49;13.93;;;7.35;;
26082;SDS011;13848;49.018;12.078;2022-12-05T04:10:21;12.65;;;7.25;;
26082;SDS011;13848;49.018;12.078;2022-12-05T04:12:52;11.07;;;6.03;;
26082;SDS011;13848;49.018;12.078;2022-12-05T04:15:22;13.10;;;6.40;;
26082;SDS011;13848;49.018;12.078;2022-12-05T04:17:55;14.75;;;7.05;;
26082;SDS011;13848;49.018;12.078;2022-12-05T04:20:25;14.20;;;6.85;;
26082;SDS011;13848;49.018;12.078;2022-12-05T04:22:53;17.02;;;7.60;;
26082;SDS011;13848;49.018;12.078;2022-12-05T04:25:20;14.75;;;7.13;;
26082;SDS011;13848;49.018;12.078;2022-12-05T04:27:47;13.90;;;7.03;;
26082;SDS011;13848;49.018;12.078;2022-12-05T04:30:19;13.90;;;7.30;;
26082;SDS011;13848;49.018;12.078;2022-12-05T04:32:49;15.88;;;7.43;;
26082;SDS011;13848;49.018;12.078;2022-12-05T04:35:22;16.67;;;7.88;;
26082;SDS011;13848;49.018;12.078;2022-12-05T04:37:54;16.08;;;7.57;;
26082;SDS011;13848;49.018;12.078;2022-12-05T04:42:54;15.35;;;7.68;;
26082;SDS011;13848;49.018;12.078;2022-12-05T04:45:23;14.75;;;7.60;;
26082;SDS011;13848;49.018;12.078;2022-12-05T04:47:52;17.08;;;8.07;;
26082;SDS011;13848;49.018;12.078;2022-12-05T04:50:22;17.30;;;7.40;;
26082;SDS011;13848;49.018;12.078;2022-12-05T04:52:51;18.17;;;7.80;;
26082;SDS011;13848;49.018;12.078;2022-12-05T04:55:22;17.80;;;8.02;;
26082;SDS011;13848;49.018;12.078;2022-12-05T04:57:50;16.95;;;7.70;;
26082;SDS011;13848;49.018;12.078;2022-12-05T05:00:20;18.10;;;8.18;;
26082;SDS011;13848;49.018;12.078;2022-12-05T05:02:49;15.93;;;7.93;;
26082;SDS011;13848;49.018;12.078;2022-12-05T05:05:18;15.55;;;7.15;;
26082;SDS011;13848;49.018;12.078;2022-12-05T05:07:47;14.70;;;7.05;;
26082;SDS011;13848;49.018;12.078;2022-12-05T05:10:15;14.73;;;7.20;;
26082;SDS011;13848;49.018;12.078;2022-12-05T05:12:44;16.83;;;8.02;;
26082;SDS011;13848;49.018;12.078;2022-12-05T05:15:10;14.35;;;7.13;;
26082;SDS011;13848;49.018;12.078;2022-12-05T05:17:36;13.65;;;7.15;;
26082;SDS011;13848;49.018;12.078;2022-12-05T05:20:02;14.88;;;6.80;;
26082;SDS011;13848;49.018;12.078;2022-12-05T05:22:29;19.88;;;8.10;;
26082;SDS011;13848;49.018;12.078;2022-12-05T05:24:56;15.50;;;7.65;;
26082;SDS011;13848;49.018;12.078;2022-12-05T05:27:22;14.98;;;7.55;;
26082;SDS011;13848;49.018;12.078;2022-12-05T05:29:48;13.50;;;6.72;;
26082;SDS011;13848;49.018;12.078;2022-12-05T05:32:14;16.45;;;7.47;;
26082;SDS011;13848;49.018;12.078;2022-12-05T05:34:40;16.30;;;8.13;;
26082;SDS011;13848;49.018;12.078;2022-12-05T05:37:06;14.95;;;7.30;;
26082;SDS011;13848;49.018;12.078;2022-12-05T05:39:32;16.67;;;7.32;;
26082;SDS011;13848;49.018;12.078;2022-12-05T05:41:59;17.15;;;7.75;;
26082;SDS011;13848;49.018;12.078;2022-12-05T05:44:25;20.85;;;7.80;;
26082;SDS011;13848;49.018;12.078;2022-12-05T05:46:51;17.20;;;7.10;;
26082;SDS011;13848;49.018;12.078;2022-12-05T05:49:17;13.40;;;6.80;;
26082;SDS011;13848;49.018;12.078;2022-12-05T05:51:43;12.57;;;6.78;;
26082;SDS011;13848;49.018;12.078;2022-12-05T05:54:09;15.00;;;7.70;;
26082;SDS011;13848;49.018;12.078;2022-12-05T05:56:35;16.38;;;7.57;;
26082;SDS011;13848;49.018;12.078;2022-12-05T05:59:02;19.20;;;7.97;;
26082;SDS011;13848;49.018;12.078;2022-12-05T06:01:29;18.45;;;8.30;;
26082;SDS011;13848;49.018;12.078;2022-12-05T06:03:55;17.77;;;8.02;;
26082;SDS011;13848;49.018;12.078;2022-12-05T06:06:21;17.65;;;8.52;;
26082;SDS011;13848;49.018;12.078;2022-12-05T06:08:48;15.93;;;8.27;;
26082;SDS011;13848;49.018;12.078;2022-12-05T06:11:14;17.50;;;8.20;;
26082;SDS011;13848;49.018;12.078;2022-12-05T06:13:41;17.27;;;8.30;;
26082;SDS011;13848;49.018;12.078;2022-12-05T06:16:10;17.50;;;8.80;;
26082;SDS011;13848;49.018;12.078;2022-12-05T06:18:38;16.55;;;8.35;;
26082;SDS011;13848;49.018;12.078;2022-12-05T06:21:04;16.67;;;8.43;;
26082;SDS011;13848;49.018;12.078;2022-12-05T06:23:30;15.85;;;8.20;;
26082;SDS011;13848;49.018;12.078;2022-12-05T06:25:56;20.02;;;9.23;;
26082;SDS011;13848;49.018;12.078;2022-12-05T06:28:23;20.15;;;9.43;;
26082;SDS011;13848;49.018;12.078;2022-12-05T06:30:50;22.92;;;9.73;;
26082;SDS011;13848;49.018;12.078;2022-12-05T06:33:17;18.30;;;8.98;;
26082;SDS011;13848;49.018;12.078;2022-12-05T06:35:43;21.33;;;9.40;;
26082;SDS011;13848;49.018;12.078;2022-12-05T06:38:09;20.10;;;9.45;;
26082;SDS011;13848;49.018;12.078;2022-12-05T06:40:38;20.45;;;9.38;;
26082;SDS011;13848;49.018;12.078;2022-12-05T06:43:04;21.73;;;9.90;;
26082;SDS011;13848;49.018;12.078;2022-12-05T06:45:30;21.23;;;9.00;;
26082;SDS011;13848;49.018;12.078;2022-12-05T06:47:56;25.65;;;9.43;;
26082;SDS011;13848;49.018;12.078;2022-12-05T06:50:23;20.50;;;9.07;;
26082;SDS011;13848;49.018;12.078;2022-12-05T06:52:49;22.05;;;8.30;;
26082;SDS011;13848;49.018;12.078;2022-12-05T06:55:16;21.02;;;8.82;;
26082;SDS011;13848;49.018;12.078;2022-12-05T06:57:42;22.70;;;9.13;;
26082;SDS011;13848;49.018;12.078;2022-12-05T07:00:08;20.10;;;9.13;;
26082;SDS011;13848;49.018;12.078;2022-12-05T07:02:34;24.88;;;9.40;;
26082;SDS011;13848;49.018;12.078;2022-12-05T07:05:00;25.83;;;9.35;;
26082;SDS011;13848;49.018;12.078;2022-12-05T07:07:29;22.42;;;10.15;;
26082;SDS011;13848;49.018;12.078;2022-12-05T07:09:55;24.08;;;10.00;;
26082;SDS011;13848;49.018;12.078;2022-12-05T07:12:21;24.40;;;10.35;;
26082;SDS011;13848;49.018;12.078;2022-12-05T07:14:47;23.75;;;10.07;;
26082;SDS011;13848;49.018;12.078;2022-12-05T07:17:12;27.02;;;10.05;;
26082;SDS011;13848;49.018;12.078;2022-12-05T07:19:38;23.33;;;9.65;;
26082;SDS011;13848;49.018;12.078;2022-12-05T07:22:04;24.65;;;10.43;;
26082;SDS011;13848;49.018;12.078;2022-12-05T07:24:32;23.95;;;9.32;;
26082;SDS011;13848;49.018;12.078;2022-12-05T07:26:58;25.40;;;10.35;;
26082;SDS011;13848;49.018;12.078;2022-12-05T07:29:24;25.52;;;10.85;;
26082;SDS011;13848;49.018;12.078;2022-12-05T07:31:49;26.63;;;10.50;;
26082;SDS011;13848;49.018;12.078;2022-12-05T07:34:17;26.77;;;10.80;;
26082;SDS011;13848;49.018;12.078;2022-12-05T07:36:43;27.63;;;10.88;;
26082;SDS011;13848;49.018;12.078;2022-12-05T07:39:09;27.55;;;10.82;;
26082;SDS011;13848;49.018;12.078;2022-12-05T07:41:37;26.00;;;11.10;;
26082;SDS011;13848;49.018;12.078;2022-12-05T07:44:03;25.70;;;10.55;;
26082;SDS011;13848;49.018;12.078;2022-12-05T07:46:29;30.10;;;11.45;;
26082;SDS011;13848;49.018;12.078;2022-12-05T07:48:55;26.08;;;10.20;;
26082;SDS011;13848;49.018;12.078;2022-12-05T07:51:21;22.45;;;9.70;;
26082;SDS011;13848;49.018;12.078;2022-12-05T07:53:47;25.23;;;10.50;;
26082;SDS011;13848;49.018;12.078;2022-12-05T07:56:15;21.50;;;10.30;;
26082;SDS011;13848;49.018;12.078;2022-12-05T07:58:43;27.15;;;11.38;;
26082;SDS011;13848;49.018;12.078;2022-12-05T08:01:11;28.23;;;9.77;;
26082;SDS011;13848;49.018;12.078;2022-12-05T08:03:38;28.90;;;10.77;;
26082;SDS011;13848;49.018;12.078;2022-12-05T08:06:05;26.00;;;11.05;;
26082;SDS011;13848;49.018;12.078;2022-12-05T08:08:33;28.52;;;11.63;;
26082;SDS011;13848;49.018;12.078;2022-12-05T08:11:01;32.72;;;11.30;;
26082;SDS011;13848;49.018;12.078;2022-12-05T08:13:28;37.63;;;13.02;;
26082;SDS011;13848;49.018;12.078;2022-12-05T08:15:56;30.27;;;12.13;;
26082;SDS011;13848;49.018;12.078;2022-12-05T08:18:25;31.25;;;12.68;;
26082;SDS011;13848;49.018;12.078;2022-12-05T08:20:51;36.20;;;13.05;;
26082;SDS011;13848;49.018;12.078;2022-12-05T08:23:17;35.10;;;13.15;;
26082;SDS011;13848;49.018;12.078;2022-12-05T08:25:43;28.17;;;12.75;;
26082;SDS011;13848;49.018;12.078;2022-12-05T08:28:09;32.97;;;13.55;;
26082;SDS011;13848;49.018;12.078;2022-12-05T08:30:35;40.90;;;14.52;;
26082;SDS011;13848;49.018;12.078;2022-12-05T08:33:03;34.80;;;13.27;;
26082;SDS011;13848;49.018;12.078;2022-12-05T08:35:29;34.35;;;13.18;;
26082;SDS011;13848;49.018;12.078;2022-12-05T08:37:55;32.88;;;13.35;;
26082;SDS011;13848;49.018;12.078;2022-12-05T08:40:21;32.05;;;12.52;;
26082;SDS011;13848;49.018;12.078;2022-12-05T08:42:47;29.55;;;12.95;;
26082;SDS011;13848;49.018;12.078;2022-12-05T08:45:13;35.45;;;12.95;;
26082;SDS011;13848;49.018;12.078;2022-12-05T08:47:39;34.05;;;13.43;;
26082;SDS011;13848;49.018;12.078;2022-12-05T08:50:07;39.10;;;14.25;;
26082;SDS011;13848;49.018;12.078;2022-12-05T08:52:33;35.42;;;14.68;;
26082;SDS011;13848;49.018;12.078;2022-12-05T08:54:59;35.03;;;13.23;;
26082;SDS011;13848;49.018;12.078;2022-12-05T08:57:25;36.65;;;14.60;;
26082;SDS011;13848;49.018;12.078;2022-12-05T08:59:51;32.75;;;13.73;;
26082;SDS011;13848;49.018;12.078;2022-12-05T09:02:17;40.15;;;13.73;;
26082;SDS011;13848;49.018;12.078;2022-12-05T09:04:43;35.22;;;13.45;;
26082;SDS011;13848;49.018;12.078;2022-12-05T09:07:10;34.33;;;13.57;;
26082;SDS011;13848;49.018;12.078;2022-12-05T09:09:36;40.10;;;13.70;;
26082;SDS011;13848;49.018;12.078;2022-12-05T09:12:02;35.33;;;14.27;;
26082;SDS011;13848;49.018;12.078;2022-12-05T09:14:28;39.88;;;13.70;;
26082;SDS011;13848;49.018;12.078;2022-12-05T09:16:54;29.90;;;13.32;;
26082;SDS011;13848;49.018;12.078;2022-12-05T09:19:20;33.10;;;13.93;;
26082;SDS011;13848;49.018;12.078;2022-12-05T09:21:46;34.50;;;13.93;;
26082;SDS011;13848;49.018;12.078;2022-12-05T09:24:14;33.28;;;13.52;;
26082;SDS011;13848;49.018;12.078;2022-12-05T09:26:40;33.88;;;12.77;;
26082;SDS011;13848;49.018;12.078;2022-12-05T09:29:06;35.05;;;14.88;;
26082;SDS011;13848;49.018;12.078;2022-12-05T09:31:32;31.60;;;13.65;;
26082;SDS011;13848;49.018;12.078;2022-12-05T09:33:59;31.95;;;13.60;;
26082;SDS011;13848;49.018;12.078;2022-12-05T09:36:25;33.65;;;13.52;;
26082;SDS011;13848;49.018;12.078;2022-12-05T09:38:54;30.17;;;12.88;;
26082;SDS011;13848;49.018;12.078;2022-12-05T09:41:26;31.73;;;13.25;;
26082;SDS011;13848;49.018;12.078;2022-12-05T09:44:21;30.48;;;12.73;;
26082;SDS011;13848;49.018;12.078;2022-12-05T09:46:53;31.33;;;13.32;;
26082;SDS011;13848;49.018;12.078;2022-12-05T09:49:24;34.50;;;14.27;;
26082;SDS011;13848;49.018;12.078;2022-12-05T09:51:51;31.70;;;13.55;;
26082;SDS011;13848;49.018;12.078;2022-12-05T09:54:19;35.55;;;14.80;;
26082;SDS011;13848;49.018;12.078;2022-12-05T09:56:49;31.90;;;14.32;;
26082;SDS011;13848;49.018;12.078;2022-12-05T09:59:16;37.47;;;14.73;;
26082;SDS011;13848;49.018;12.078;2022-12-05T10:01:45;35.17;;;14.35;;
26082;SDS011;13848;49.018;12.078;2022-12-05T10:04:25;42.13;;;15.48;;
26082;SDS011;13848;49.018;12.078;2022-12-05T10:07:14;31.95;;;12.88;;
26082;SDS011;13848;49.018;12.078;2022-12-05T10:09:50;31.17;;;13.52;;
26082;SDS011;13848;49.018;12.078;2022-12-05T10:12:28;32.30;;;14.43;;
26082;SDS011;13848;49.018;12.078;2022-12-05T10:15:08;35.63;;;14.23;;
26082;SDS011;13848;49.018;12.078;2022-12-05T10:20:09;35.08;;;14.27;;
26082;SDS011;13848;49.018;12.078;2022-12-05T10:22:41;34.08;;;14.43;;
26082;SDS011;13848;49.018;12.078;2022-12-05T10:25:10;34.90;;;14.85;;
26082;SDS011;13848;49.018;12.078;2022-12-05T10:27:41;32.92;;;13.93;;
26082;SDS011;13848;49.018;12.078;2022-12-05T10:30:13;37.47;;;15.43;;
26082;SDS011;13848;49.018;12.078;2022-12-05T10:32:42;34.70;;;14.20;;
26082;SDS011;13848;49.018;12.078;2022-12-05T10:35:18;31.70;;;13.98;;
26082;SDS011;13848;49.018;12.078;2022-12-05T10:37:46;31.08;;;13.85;;
26082;SDS011;13848;49.018;12.078;2022-12-05T10:40:14;26.45;;;12.10;;
26082;SDS011;13848;49.018;12.078;2022-12-05T10:42:42;31.15;;;12.55;;
26082;SDS011;13848;49.018;12.078;2022-12-05T10:45:12;27.52;;;12.27;;
26082;SDS011;13848;49.018;12.078;2022-12-05T10:47:40;37.75;;;13.80;;
26082;SDS011;13848;49.018;12.078;2022-12-05T10:50:09;31.45;;;13.30;;
26082;SDS011;13848;49.018;12.078;2022-12-05T10:52:45;31.55;;;12.80;;
26082;SDS011;13848;49.018;12.078;2022-12-05T10:55:12;32.33;;;12.65;;
26082;SDS011;13848;49.018;12.078;2022-12-05T10:57:42;31.17;;;12.77;;
26082;SDS011;13848;49.018;12.078;2022-12-05T11:00:15;30.15;;;11.80;;
26082;SDS011;13848;49.018;12.078;2022-12-05T11:02:46;25.20;;;11.82;;
26082;SDS011;13848;49.018;12.078;2022-12-05T11:05:13;26.73;;;11.32;;
26082;SDS011;13848;49.018;12.078;2022-12-05T11:07:44;23.40;;;11.55;;
26082;SDS011;13848;49.018;12.078;2022-12-05T11:10:17;26.15;;;11.38;;
26082;SDS011;13848;49.018;12.078;2022-12-05T11:12:46;26.45;;;11.13;;
26082;SDS011;13848;49.018;12.078;2022-12-05T11:15:18;27.50;;;11.93;;
26082;SDS011;13848;49.018;12.078;2022-12-05T11:17:45;25.25;;;12.05;;
26082;SDS011;13848;49.018;12.078;2022-12-05T11:23:14;24.88;;;10.75;;
26082;SDS011;13848;49.018;12.078;2022-12-05T11:25:51;27.20;;;11.98;;
26082;SDS011;13848;49.018;12.078;2022-12-05T11:28:23;24.88;;;12.10;;
26082;SDS011;13848;49.018;12.078;2022-12-05T11:30:55;25.92;;;11.38;;
26082;SDS011;13848;49.018;12.078;2022-12-05T11:33:23;21.65;;;10.55;;
26082;SDS011;13848;49.018;12.078;2022-12-05T11:35:51;29.88;;;11.02;;
26082;SDS011;13848;49.018;12.078;2022-12-05T11:38:19;25.08;;;11.88;;
26082;SDS011;13848;49.018;12.078;2022-12-05T11:40:49;22.90;;;11.32;;
26082;SDS011;13848;49.018;12.078;2022-12-05T11:43:36;28.52;;;11.23;;
26082;SDS011;13848;49.018;12.078;2022-12-05T11:46:13;26.30;;;10.87;;
26082;SDS011;13848;49.018;12.078;2022-12-05T11:48:56;21.92;;;9.82;;
26082;SDS011;13848;49.018;12.078;2022-12-05T11:51:35;17.55;;;8.60;;
26082;SDS011;13848;49.018;12.078;2022-12-05T11:54:17;19.63;;;9.00;;
26082;SDS011;13848;49.018;12.078;2022-12-05T11:56:57;18.75;;;9.18;;
26082;SDS011;13848;49.018;12.078;2022-12-05T11:59:32;18.80;;;8.13;;
26082;SDS011;13848;49.018;12.078;2022-12-05T12:02:26;17.13;;;7.10;;
26082;SDS011;13848;49.018;12.078;2022-12-05T12:05:00;13.18;;;7.28;;
26082;SDS011;13848;49.018;12.078;2022-12-05T12:07:35;13.30;;;7.70;;
26082;SDS011;13848;49.018;12.078;2022-12-05T12:10:14;14.85;;;7.43;;
26082;SDS011;13848;49.018;12.078;2022-12-05T12:12:50;16.52;;;7.80;;
26082;SDS011;13848;49.018;12.078;2022-12-05T12:15:33;10.95;;;6.20;;
26082;SDS011;13848;49.018;12.078;2022-12-05T12:18:12;11.30;;;6.20;;
26082;SDS011;13848;49.018;12.078;2022-12-05T12:20:51;12.13;;;6.10;;
26082;SDS011;13848;49.018;12.078;2022-12-05T12:23:34;11.30;;;5.65;;
26082;SDS011;13848;49.018;12.078;2022-12-05T12:26:09;10.65;;;5.25;;
26082;SDS011;13848;49.018;12.078;2022-12-05T12:28:41;7.25;;;5.18;;
26082;SDS011;13848;49.018;12.078;2022-12-05T12:34:19;9.38;;;4.95;;
26082;SDS011;13848;49.018;12.078;2022-12-05T12:36:58;21.13;;;10.90;;
26082;SDS011;13848;49.018;12.078;2022-12-05T12:39:33;10.30;;;5.28;;
26082;SDS011;13848;49.018;12.078;2022-12-05T12:42:10;8.07;;;4.85;;
26082;SDS011;13848;49.018;12.078;2022-12-05T12:47:42;9.48;;;5.55;;
26082;SDS011;13848;49.018;12.078;2022-12-05T12:50:16;11.00;;;5.90;;
26082;SDS011;13848;49.018;12.078;2022-12-05T12:52:49;10.75;;;5.70;;
26082;SDS011;13848;49.018;12.078;2022-12-05T12:55:28;9.13;;;5.05;;
26082;SDS011;13848;49.018;12.078;2022-12-05T12:58:05;13.05;;;5.47;;
26082;SDS011;13848;49.018;12.078;2022-12-05T13:00:46;9.13;;;5.20;;
26082;SDS011;13848;49.018;12.078;2022-12-05T13:03:22;8.90;;;4.85;;
26082;SDS011;13848;49.018;12.078;2022-12-05T13:05:52;10.05;;;4.90;;
26082;SDS011;13848;49.018;12.078;2022-12-05T13:08:24;8.77;;;5.05;;
26082;SDS011;13848;49.018;12.078;2022-12-05T13:10:54;9.48;;;5.28;;
26082;SDS011;13848;49.018;12.078;2022-12-05T13:13:25;11.48;;;6.03;;
26082;SDS011;13848;49.018;12.078;2022-12-05T13:15:57;8.93;;;5.68;;
26082;SDS011;13848;49.018;12.078;2022-12-05T13:18:26;8.82;;;4.93;;
26082;SDS011;13848;49.018;12.078;2022-12-05T13:20:53;7.22;;;4.60;;
26082;SDS011;13848;49.018;12.078;2022-12-05T13:23:21;9.05;;;5.03;;
26082;SDS011;13848;49.018;12.078;2022-12-05T13:25:50;7.25;;;4.22;;
26082;SDS011;13848;49.018;12.078;2022-12-05T13:28:25;9.05;;;4.90;;
26082;SDS011;13848;49.018;12.078;2022-12-05T13:30:54;8.70;;;4.95;;
26082;SDS011;13848;49.018;12.078;2022-12-05T13:33:21;8.00;;;4.78;;
26082;SDS011;13848;49.018;12.078;2022-12-05T13:35:54;10.20;;;5.25;;
26082;SDS011;13848;49.018;12.078;2022-12-05T13:38:22;10.53;;;6.80;;
26082;SDS011;13848;49.018;12.078;2022-12-05T13:40:53;10.00;;;6.13;;
26082;SDS011;13848;49.018;12.078;2022-12-05T13:43:20;8.98;;;5.32;;
26082;SDS011;13848;49.018;12.078;2022-12-05T13:45:56;8.60;;;5.15;;
26082;SDS011;13848;49.018;12.078;2022-12-05T13:48:27;9.55;;;6.10;;
26082;SDS011;13848;49.018;12.078;2022-12-05T13:50:57;11.13;;;5.80;;
26082;SDS011;13848;49.018;12.078;2022-12-05T13:53:28;12.50;;;5.45;;
26082;SDS011;13848;49.018;12.078;2022-12-05T13:55:58;9.52;;;5.70;;
26082;SDS011;13848;49.018;12.078;2022-12-05T13:58:36;8.77;;;5.93;;
26082;SDS011;13848;49.018;12.078;2022-12-05T14:04:20;10.13;;;5.55;;
26082;SDS011;13848;49.018;12.078;2022-12-05T14:07:06;9.48;;;5.25;;
26082;SDS011;13848;49.018;12.078;2022-12-05T14:09:47;9.90;;;5.75;;
26082;SDS011;13848;49.018;12.078;2022-12-05T14:12:27;8.48;;;5.65;;
26082;SDS011;13848;49.018;12.078;2022-12-05T14:14:59;11.00;;;6.28;;
26082;SDS011;13848;49.018;12.078;2022-12-05T14:17:26;11.80;;;5.97;;
26082;SDS011;13848;49.018;12.078;2022-12-05T14:20:04;11.95;;;6.47;;
26082;SDS011;13848;49.018;12.078;2022-12-05T14:22:47;10.43;;;6.00;;
26082;SDS011;13848;49.018;12.078;2022-12-05T14:25:41;14.88;;;7.05;;
26082;SDS011;13848;49.018;12.078;2022-12-05T14:28:26;14.23;;;7.18;;
26082;SDS011;13848;49.018;12.078;2022-12-05T14:31:06;13.27;;;6.68;;
26082;SDS011;13848;49.018;12.078;2022-12-05T14:33:45;15.80;;;6.80;;
26082;SDS011;13848;49.018;12.078;2022-12-05T14:36:49;11.32;;;6.53;;
26082;SDS011;13848;49.018;12.078;2022-12-05T14:39:25;15.23;;;7.03;;
26082;SDS011;13848;49.018;12.078;2022-12-05T14:41:57;15.57;;;7.55;;
26082;SDS011;13848;49.018;12.078;2022-12-05T14:44:25;14.02;;;7.22;;
26082;SDS011;13848;49.018;12.078;2022-12-05T14:46:53;12.98;;;7.53;;
26082;SDS011;13848;49.018;12.078;2022-12-05T14:49:33;15.90;;;8.35;;
26082;SDS011;13848;49.018;12.078;2022-12-05T14:52:06;16.20;;;7.75;;
26082;SDS011;13848;49.018;12.078;2022-12-05T14:54:35;16.27;;;7.93;;
26082;SDS011;13848;49.018;12.078;2022-12-05T14:57:03;12.85;;;7.75;;
26082;SDS011;13848;49.018;12.078;2022-12-05T14:59:37;12.88;;;7.28;;